Time;durP1;ratioP1;P1;durP2;ratioP2;P2;SDS_P1;SDS_P2;PMS_P1;PMS_P2;Temp;Humidity;BMP_temperature;BMP_pressure;BME280_temperature;BME280_humidity;BME280_pressure;Samples;Min_cycle;Max_cycle;Signal;HPM_P1;HPM_P2
2024/03/25 00:01:32;;;;;;;;;;;;;;;16.83;49.60;99297.66;5040895;28;2957;-54
2024/03/25 00:03:58;;;;;;;;;;;;;;;16.43;49.02;99281.81;5078338;28;1054;-55
2024/03/25 00:06:23;;;;;;;;;;;;;;;16.18;48.11;99271.41;5077939;28;1035;-54
2024/03/25 00:08:49;;;;;;;;;;;;;;;16.41;48.11;99278.59;5071795;28;1123;-54
2024/03/25 00:11:15;;;;;;;;;;;;;;;16.78;49.33;99273.06;5076064;28;1078;-54
2024/03/25 00:13:40;;;;;;;;;;;;;;;16.35;48.65;99271.56;5070952;28;1225;-54
2024/03/25 00:16:06;;;;;;;;;;;;;;;16.13;47.84;99274.25;5064251;28;1395;-53
2024/03/25 00:18:32;;;;;;;;;;;;;;;16.65;48.81;99274.75;5059993;28;1134;-53
2024/03/25 00:20:57;;;;;;;;;;;;;;;16.62;49.26;99275.38;5064678;28;1098;-54
2024/03/25 00:23:23;;;;;;;;;;;;;;;16.25;48.66;99267.13;5077432;28;1988;-52
2024/03/25 00:25:48;;;;;;;;;;;;;;;16.15;47.76;99264.63;5077039;28;900;-54
2024/03/25 00:28:14;;;;;;;;;;;;;;;15.94;47.33;99283.44;5078232;28;1063;-54
2024/03/25 00:30:40;;;;;;;;;;;;;;;15.87;46.75;99280.28;5055265;28;2588;-54
2024/03/25 00:33:06;;;;;;;;;;;;;;;16.71;47.92;99279.00;5063171;28;1041;-53
2024/03/25 00:35:32;;;;;;;;;;;;;;;16.36;48.94;99280.63;5051796;28;1171;-53
2024/03/25 00:37:58;;;;;;;;;;;;;;;16.03;48.39;99273.38;5058992;28;1060;-51
2024/03/25 00:40:24;;;;;;;;;;;;;;;15.84;47.58;99278.16;5064538;28;1106;-52
2024/03/25 00:42:49;;;;;;;;;;;;;;;15.82;46.90;99280.38;5077990;28;1890;-51
2024/03/25 00:45:16;;;;;;;;;;;;;;;16.86;47.85;99274.28;5077096;28;1011;-52
2024/03/25 00:47:41;;;;;;;;;;;;;;;16.36;48.78;99278.69;5063860;28;1035;-53
2024/03/25 00:50:07;;;;;;;;;;;;;;;16.01;48.33;99277.53;5062943;28;936;-52
2024/03/25 00:52:33;;;;;;;;;;;;;;;15.84;47.29;99272.69;5077386;28;1159;-52
2024/03/25 00:54:58;;;;;;;;;;;;;;;15.74;46.95;99270.94;5077554;28;1015;-53
2024/03/25 00:57:24;;;;;;;;;;;;;;;16.03;47.21;99270.63;5076792;28;1086;-53
2024/03/25 00:59:49;;;;;;;;;;;;;;;16.64;48.44;99258.59;5043762;28;2833;-53
2024/03/25 01:02:15;;;;;;;;;;;;;;;16.01;48.52;99255.59;5068119;28;1909;-53
2024/03/25 01:04:41;;;;;;;;;;;;;;;15.89;47.50;99256.09;5051071;28;1091;-52
2024/03/25 01:07:06;;;;;;;;;;;;;;;16.57;48.11;99261.78;5026355;28;1072;-53
2024/03/25 01:09:32;;;;;;;;;;;;;;;16.53;48.95;99255.28;5065761;28;972;-52
2024/03/25 01:11:58;;;;;;;;;;;;;;;16.02;48.67;99252.56;5050662;28;1616;-54
2024/03/25 01:14:23;;;;;;;;;;;;;;;15.85;47.63;99241.41;5074119;28;1098;-54
2024/03/25 01:16:49;;;;;;;;;;;;;;;15.78;47.03;99230.00;5076640;28;857;-51
2024/03/25 01:19:14;;;;;;;;;;;;;;;15.63;46.76;99231.94;5077051;28;1043;-49
2024/03/25 01:21:40;;;;;;;;;;;;;;;15.56;46.15;99234.28;5070681;28;1897;-52
2024/03/25 01:24:05;;;;;;;;;;;;;;;16.94;47.85;99237.84;5069311;28;1000;-52
2024/03/25 01:26:31;;;;;;;;;;;;;;;16.04;48.95;99244.03;5066151;28;1019;-53
2024/03/25 01:28:56;;;;;;;;;;;;;;;15.82;47.85;99236.53;5064598;28;1229;-51
2024/03/25 01:31:22;;;;;;;;;;;;;;;16.81;48.29;99246.94;5046147;28;2534;-52
2024/03/25 01:33:48;;;;;;;;;;;;;;;16.32;48.71;99250.25;5069194;28;1031;-52
2024/03/25 01:36:17;;;;;;;;;;;;;;;15.93;48.58;99253.59;5057503;28;1159;-52
2024/03/25 01:38:43;;;;;;;;;;;;;;;15.77;47.77;99262.09;5072615;28;878;-52
2024/03/25 01:41:09;;;;;;;;;;;;;;;16.95;47.96;99261.44;5070252;28;1082;-53
2024/03/25 01:43:35;;;;;;;;;;;;;;;16.11;48.91;99271.03;5069016;28;1910;-51
2024/03/25 01:46:00;;;;;;;;;;;;;;;16.89;48.55;99279.16;5061763;28;1126;-54
2024/03/25 01:48:26;;;;;;;;;;;;;;;17.01;48.83;99279.41;5076435;28;1106;-54
2024/03/25 01:50:51;;;;;;;;;;;;;;;16.31;48.96;99288.97;5067826;28;1123;-54
2024/03/25 01:53:17;;;;;;;;;;;;;;;16.07;48.15;99276.31;5068556;28;1052;-54
2024/03/25 01:55:42;;;;;;;;;;;;;;;15.94;47.23;99288.13;5070602;28;1122;-54
2024/03/25 01:58:08;;;;;;;;;;;;;;;15.74;46.87;99293.66;5068503;28;1039;-53
2024/03/25 02:00:34;;;;;;;;;;;;;;;17.16;48.38;99291.13;5038981;28;2553;-54
2024/03/25 02:02:59;;;;;;;;;;;;;;;16.28;49.19;99284.91;5073002;28;1913;-53
2024/03/25 02:05:25;;;;;;;;;;;;;;;16.02;48.39;99290.09;5075697;28;1138;-53
2024/03/25 02:07:51;;;;;;;;;;;;;;;15.83;47.71;99287.50;5076204;28;1121;-54
2024/03/25 02:10:16;;;;;;;;;;;;;;;16.75;48.19;99285.47;5047842;28;1102;-53
2024/03/25 02:12:42;;;;;;;;;;;;;;;16.95;48.53;99299.88;5067881;28;1141;-53
2024/03/25 02:15:08;;;;;;;;;;;;;;;16.33;48.32;99294.97;5062589;28;1083;-54
2024/03/25 02:17:34;;;;;;;;;;;;;;;16.08;47.52;99297.13;5058285;28;1103;-54
2024/03/25 02:20:00;;;;;;;;;;;;;;;15.91;47.00;99297.75;5062382;28;1126;-54
2024/03/25 02:22:25;;;;;;;;;;;;;;;15.80;46.63;99299.06;5052943;28;1972;-52
2024/03/25 02:24:52;;;;;;;;;;;;;;;17.18;48.25;99299.84;5067542;28;1047;-52
2024/03/25 02:27:18;;;;;;;;;;;;;;;16.50;48.95;99305.28;5062128;28;1030;-53
2024/03/25 02:29:44;;;;;;;;;;;;;;;16.11;48.30;99304.72;5048932;28;2617;-53
2024/03/25 02:32:10;;;;;;;;;;;;;;;15.97;47.53;99306.69;5060199;28;1049;-53
2024/03/25 02:34:39;;;;;;;;;;;;;;;16.73;48.36;99308.88;5070013;28;1078;-53
2024/03/25 02:37:04;;;;;;;;;;;;;;;16.59;48.83;99295.19;5068133;28;1075;-52
2024/03/25 02:39:31;;;;;;;;;;;;;;;16.03;48.80;99305.44;5069241;28;1127;-52
2024/03/25 02:41:56;;;;;;;;;;;;;;;15.95;47.88;99297.94;5055485;28;1975;-52
2024/03/25 02:44:22;;;;;;;;;;;;;;;17.27;48.14;99295.22;5068503;28;1271;-53
2024/03/25 02:46:48;;;;;;;;;;;;;;;16.64;48.71;99297.81;5068350;28;1035;-52
2024/03/25 02:49:13;;;;;;;;;;;;;;;16.18;48.62;99293.34;5051689;28;1048;-53
2024/03/25 02:51:39;;;;;;;;;;;;;;;15.99;47.63;99291.56;5074458;28;896;-51
2024/03/25 02:54:05;;;;;;;;;;;;;;;17.41;48.12;99284.97;5069759;28;1261;-53
2024/03/25 02:56:30;;;;;;;;;;;;;;;16.54;49.16;99278.84;5069572;28;1106;-52
2024/03/25 02:58:56;;;;;;;;;;;;;;;16.23;48.41;99263.09;5066165;28;1143;-52
2024/03/25 03:01:21;;;;;;;;;;;;;;;16.01;47.55;99259.16;5072580;28;2686;-52
2024/03/25 03:03:47;;;;;;;;;;;;;;;15.93;46.77;99257.13;5059228;28;960;-53
2024/03/25 03:06:13;;;;;;;;;;;;;;;16.52;48.36;99254.47;5059368;28;997;-53
2024/03/25 03:08:39;;;;;;;;;;;;;;;16.12;48.15;99250.69;5072332;28;1051;-53
2024/03/25 03:11:04;;;;;;;;;;;;;;;17.06;48.20;99253.75;5059552;28;1110;-52
2024/03/25 03:13:30;;;;;;;;;;;;;;;16.50;48.74;99264.94;5063149;28;1146;-53
2024/03/25 03:15:55;;;;;;;;;;;;;;;16.14;48.18;99270.41;5070855;28;1079;-53
2024/03/25 03:18:21;;;;;;;;;;;;;;;16.00;47.22;99279.44;5065659;28;1082;-51
2024/03/25 03:20:48;;;;;;;;;;;;;;;15.94;46.73;99277.16;5079495;28;1094;-52
2024/03/25 03:23:13;;;;;;;;;;;;;;;17.25;47.86;99279.06;5065750;28;1897;-53
2024/03/25 03:25:40;;;;;;;;;;;;;;;16.55;48.66;99280.47;5077967;28;1127;-51
2024/03/25 03:28:05;;;;;;;;;;;;;;;16.18;48.42;99261.25;5064476;28;1059;-52
2024/03/25 03:30:31;;;;;;;;;;;;;;;17.21;48.17;99258.84;5079094;28;1086;-49
2024/03/25 03:32:57;;;;;;;;;;;;;;;16.44;48.55;99263.44;5073219;28;1125;-50
2024/03/25 03:35:22;;;;;;;;;;;;;;;16.09;48.14;99271.34;5070537;28;1195;-52
2024/03/25 03:37:48;;;;;;;;;;;;;;;16.07;46.90;99260.69;5061250;28;1071;-52
2024/03/25 03:40:14;;;;;;;;;;;;;;;16.53;48.08;99260.75;5078934;28;1039;-52
2024/03/25 03:42:39;;;;;;;;;;;;;;;17.19;48.13;99265.78;5077935;28;1977;-50
2024/03/25 03:45:05;;;;;;;;;;;;;;;16.38;48.79;99265.50;5078744;28;1067;-49
2024/03/25 03:47:31;;;;;;;;;;;;;;;16.67;48.89;99274.44;5065522;28;1182;-52
2024/03/25 03:49:57;;;;;;;;;;;;;;;16.51;49.06;99258.34;5068694;28;1122;-54
2024/03/25 03:52:23;;;;;;;;;;;;;;;16.18;48.50;99250.28;5060577;28;1149;-54
2024/03/25 03:54:48;;;;;;;;;;;;;;;16.06;47.62;99250.00;5069934;28;1051;-54
2024/03/25 03:57:14;;;;;;;;;;;;;;;16.72;48.41;99269.63;5077339;28;1086;-54
2024/03/25 03:59:39;;;;;;;;;;;;;;;16.90;48.59;99276.09;5067789;28;1028;-53
2024/03/25 04:02:05;;;;;;;;;;;;;;;16.32;48.57;99282.38;5060273;28;1968;-53
2024/03/25 04:04:30;;;;;;;;;;;;;;;16.04;47.97;99277.72;5069772;28;971;-53
2024/03/25 04:06:56;;;;;;;;;;;;;;;15.98;47.17;99278.97;5077961;28;1020;-54
2024/03/25 04:09:23;;;;;;;;;;;;;;;15.77;46.86;99281.28;5060218;28;1080;-52
2024/03/25 04:11:49;;;;;;;;;;;;;;;17.23;48.04;99266.75;5068617;28;1063;-51
2024/03/25 04:14:15;;;;;;;;;;;;;;;16.58;48.66;99277.91;5058469;28;1072;-53
2024/03/25 04:16:40;;;;;;;;;;;;;;;16.17;48.44;99275.28;5058255;28;1166;-55
2024/03/25 04:19:06;;;;;;;;;;;;;;;15.90;47.86;99280.47;5070055;28;1258;-55
2024/03/25 04:21:32;;;;;;;;;;;;;;;15.93;46.77;99283.75;5077450;28;1898;-55
2024/03/25 04:23:57;;;;;;;;;;;;;;;16.58;48.17;99279.88;5077138;28;1153;-58
2024/03/25 04:26:23;;;;;;;;;;;;;;;16.81;49.06;99288.09;5062066;28;1151;-62
2024/03/25 04:28:49;;;;;;;;;;;;;;;16.22;48.84;99286.13;5078030;28;1066;-61
2024/03/25 04:31:14;;;;;;;;;;;;;;;15.97;48.24;99288.28;5071725;28;1059;-58
2024/03/25 04:33:41;;;;;;;;;;;;;;;15.89;47.36;99286.25;5057707;28;1055;-61
2024/03/25 04:36:06;;;;;;;;;;;;;;;16.07;47.59;99285.34;5076133;28;992;-61
2024/03/25 04:38:32;;;;;;;;;;;;;;;16.96;48.52;99285.03;5077987;28;1115;-62
2024/03/25 04:40:58;;;;;;;;;;;;;;;16.16;48.89;99279.13;5063551;28;1103;-61
2024/03/25 04:43:23;;;;;;;;;;;;;;;15.99;48.01;99283.34;5065786;28;1905;-59
2024/03/25 04:45:49;;;;;;;;;;;;;;;15.89;47.54;99283.53;5070709;28;1008;-59
2024/03/25 04:48:14;;;;;;;;;;;;;;;17.05;48.07;99285.88;5068841;28;1047;-57
2024/03/25 04:50:40;;;;;;;;;;;;;;;16.22;48.72;99284.19;5076355;28;1118;-58
2024/03/25 04:53:06;;;;;;;;;;;;;;;17.53;47.99;99302.78;5062540;28;2691;-62
2024/03/25 04:55:31;;;;;;;;;;;;;;;17.04;48.84;99303.50;5051810;28;1426;-65
2024/03/25 04:57:57;;;;;;;;;;;;;;;16.41;48.71;99300.53;5057233;28;1059;-60
2024/03/25 05:00:22;;;;;;;;;;;;;;;16.18;48.04;99293.34;5074445;28;1075;-60
2024/03/25 05:02:48;;;;;;;;;;;;;;;16.07;47.30;99282.63;5056731;28;1906;-56
2024/03/25 05:05:14;;;;;;;;;;;;;;;16.62;48.37;99296.50;5063947;28;1170;-57
2024/03/25 05:07:40;;;;;;;;;;;;;;;16.46;49.12;99288.63;5077402;28;1063;-57
2024/03/25 05:10:05;;;;;;;;;;;;;;;17.21;47.91;99288.25;5071391;28;1124;-60
2024/03/25 05:12:31;;;;;;;;;;;;;;;16.59;49.26;99290.53;5069489;28;1174;-58
2024/03/25 05:14:57;;;;;;;;;;;;;;;16.35;49.50;99288.03;5058536;28;1068;-55
2024/03/25 05:17:22;;;;;;;;;;;;;;;16.10;50.25;99300.38;5069106;28;1418;-57
2024/03/25 05:19:48;;;;;;;;;;;;;;;15.95;50.49;99309.72;5070450;28;1066;-55
2024/03/25 05:22:13;;;;;;;;;;;;;;;15.70;51.05;99303.59;5051652;28;1898;-58
2024/03/25 05:24:39;;;;;;;;;;;;;;;15.60;51.38;99300.22;5057514;28;1035;-58
2024/03/25 05:27:06;;;;;;;;;;;;;;;15.48;51.47;99304.28;5071381;28;1166;-56
2024/03/25 05:29:31;;;;;;;;;;;;;;;15.30;52.06;99300.50;5070256;28;1527;-59
2024/03/25 05:31:58;;;;;;;;;;;;;;;15.24;51.96;99298.97;5069508;28;1138;-59
2024/03/25 05:34:24;;;;;;;;;;;;;;;15.13;52.02;99297.50;5077188;28;1096;-58
2024/03/25 05:36:49;;;;;;;;;;;;;;;15.10;52.06;99295.38;5076716;28;1110;-58
2024/03/25 05:39:15;;;;;;;;;;;;;;;16.47;49.18;99286.72;5051435;28;1295;-58
2024/03/25 05:41:40;;;;;;;;;;;;;;;17.22;47.17;99273.38;5055032;28;1906;-55
2024/03/25 05:44:06;;;;;;;;;;;;;;;16.19;49.90;99270.31;5056637;28;1130;-60
2024/03/25 05:46:31;;;;;;;;;;;;;;;15.84;50.83;99268.00;5070111;28;1050;-59
2024/03/25 05:48:57;;;;;;;;;;;;;;;15.54;51.59;99266.63;5063429;28;1095;-57
2024/03/25 05:51:22;;;;;;;;;;;;;;;15.40;51.73;99270.19;5044071;28;1401;-58
2024/03/25 05:53:48;;;;;;;;;;;;;;;15.26;52.08;99283.03;5055721;28;2413;-58
2024/03/25 05:56:15;;;;;;;;;;;;;;;16.20;50.20;99277.41;5064543;28;1080;-59
2024/03/25 05:58:40;;;;;;;;;;;;;;;17.39;46.89;99276.25;5050877;28;969;-58
2024/03/25 06:01:07;;;;;;;;;;;;;;;16.55;48.75;99266.75;5051368;28;1147;-59
2024/03/25 06:03:32;;;;;;;;;;;;;;;16.04;50.26;99263.22;5053806;28;1906;-62
2024/03/25 06:05:58;;;;;;;;;;;;;;;15.74;50.81;99277.22;5054467;28;1194;-57
2024/03/25 06:08:26;;;;;;;;;;;;;;;15.60;51.33;99284.63;5061643;28;1028;-58
2024/03/25 06:10:52;;;;;;;;;;;;;;;15.40;51.89;99275.66;5050302;28;1218;-56
2024/03/25 06:13:18;;;;;;;;;;;;;;;15.23;52.17;99281.72;5050039;28;1293;-59
2024/03/25 06:15:44;;;;;;;;;;;;;;;16.43;49.64;99270.03;5059831;28;1295;-59
2024/03/25 06:18:09;;;;;;;;;;;;;;;17.53;47.00;99286.31;5047702;28;1532;-60
2024/03/25 06:20:35;;;;;;;;;;;;;;;16.55;49.10;99280.47;5074923;28;1209;-58
2024/03/25 06:23:01;;;;;;;;;;;;;;;16.02;50.44;99290.94;5062210;28;1979;-59
2024/03/25 06:25:27;;;;;;;;;;;;;;;15.77;51.38;99299.63;5050004;28;2423;-61
2024/03/25 06:27:53;;;;;;;;;;;;;;;15.59;51.64;99299.44;5050245;28;913;-57
2024/03/25 06:35:47;;;;;;;;;;;;;;;15.54;51.92;99315.94;5044368;28;1171;-59
2024/03/25 06:38:12;;;;;;;;;;;;;;;17.04;48.13;99317.22;5050104;28;1230;-58
2024/03/25 06:40:38;;;;;;;;;;;;;;;17.31;47.17;99317.41;5051382;28;1030;-60
2024/03/25 06:43:04;;;;;;;;;;;;;;;16.33;49.47;99317.72;5050558;28;1905;-57
2024/03/25 06:45:29;;;;;;;;;;;;;;;15.90;50.82;99326.28;5043165;28;1470;-53
2024/03/25 06:47:55;;;;;;;;;;;;;;;15.68;51.19;99325.03;5053258;28;1200;-54
2024/03/25 06:50:20;;;;;;;;;;;;;;;15.50;51.69;99329.47;5051451;28;1150;-53
2024/03/25 06:52:46;;;;;;;;;;;;;;;15.30;52.33;99341.56;5055023;28;860;-56
2024/03/25 06:55:12;;;;;;;;;;;;;;;15.42;52.02;99329.31;5045895;28;2421;-56
2024/03/25 06:57:37;;;;;;;;;;;;;;;16.99;48.30;99344.81;5067798;28;1095;-59
2024/03/25 07:00:06;;;;;;;;;;;;;;;17.20;47.29;99339.63;5057431;28;1063;-57
2024/03/25 07:02:32;;;;;;;;;;;;;;;16.28;49.64;99347.19;5052118;28;1972;-59
2024/03/25 07:04:58;;;;;;;;;;;;;;;15.90;50.85;99339.97;5073360;28;1169;-58
2024/03/25 07:07:23;;;;;;;;;;;;;;;15.59;51.61;99353.44;5075867;28;1059;-59
2024/03/25 07:09:49;;;;;;;;;;;;;;;15.46;51.91;99360.47;5062356;28;1067;-57
2024/03/25 07:12:14;;;;;;;;;;;;;;;15.38;51.90;99351.84;5068912;28;1123;-56
2024/03/25 07:14:40;;;;;;;;;;;;;;;15.64;51.54;99362.38;5056104;28;1176;-56
2024/03/25 07:17:06;;;;;;;;;;;;;;;17.09;47.72;99372.00;5056492;28;932;-55
2024/03/25 07:19:31;;;;;;;;;;;;;;;16.91;48.26;99387.56;5065074;28;1051;-54
2024/03/25 07:21:57;;;;;;;;;;;;;;;16.17;50.13;99390.47;5055500;28;1898;-54
2024/03/25 07:24:23;;;;;;;;;;;;;;;15.88;50.88;99400.59;5059727;28;2474;-55
2024/03/25 07:26:48;;;;;;;;;;;;;;;15.65;51.39;99401.53;5075104;28;1043;-54
2024/03/25 07:29:14;;;;;;;;;;;;;;;15.45;51.93;99397.22;5069328;28;1204;-54
2024/03/25 07:31:40;;;;;;;;;;;;;;;15.29;52.15;99394.72;5040006;28;1306;-55
2024/03/25 07:34:05;;;;;;;;;;;;;;;15.02;52.71;99379.00;5039489;28;1244;-55
2024/03/25 07:36:35;;;;;;;;;;;;;;;16.20;50.38;99390.66;5043342;28;1193;-54
2024/03/25 07:39:00;;;;;;;;;;;;;;;17.34;47.20;99402.75;5040154;28;1294;-55
2024/03/25 07:41:26;;;;;;;;;;;;;;;16.56;49.18;99414.63;5054558;28;1083;-56
2024/03/25 07:43:51;;;;;;;;;;;;;;;15.92;50.67;99409.00;5072045;28;1981;-54
2024/03/25 07:46:17;;;;;;;;;;;;;;;15.65;51.48;99416.03;5059097;28;1087;-55
2024/03/25 07:48:42;;;;;;;;;;;;;;;15.53;51.79;99412.97;5051313;28;1305;-54
2024/03/25 07:51:08;;;;;;;;;;;;;;;15.31;51.96;99414.41;5078723;28;1034;-56
2024/03/25 07:53:35;;;;;;;;;;;;;;;15.19;52.21;99427.72;5063678;28;2571;-54
2024/03/25 07:56:00;;;;;;;;;;;;;;;16.19;50.20;99432.91;5055745;28;1028;-54
2024/03/25 07:58:26;;;;;;;;;;;;;;;17.32;47.44;99435.22;5078653;28;1031;-54
2024/03/25 08:00:52;;;;;;;;;;;;;;;16.91;48.12;99417.75;5063424;28;1198;-52
2024/03/25 08:03:18;;;;;;;;;;;;;;;16.04;50.27;99436.75;5064908;28;1909;-55
2024/03/25 08:05:43;;;;;;;;;;;;;;;15.85;50.81;99433.25;5070071;28;992;-55
2024/03/25 08:08:09;;;;;;;;;;;;;;;15.65;51.59;99435.22;5059636;28;1072;-55
2024/03/25 08:10:34;;;;;;;;;;;;;;;15.49;51.75;99436.59;5077861;28;1067;-55
2024/03/25 08:13:00;;;;;;;;;;;;;;;15.49;51.90;99445.63;5049514;28;1250;-55
2024/03/25 08:15:26;;;;;;;;;;;;;;;15.21;52.49;99447.44;5053501;28;1267;-55
2024/03/25 08:17:51;;;;;;;;;;;;;;;16.70;49.01;99442.03;5057154;28;1014;-55
2024/03/25 08:20:17;;;;;;;;;;;;;;;17.58;46.82;99437.34;5056780;28;1183;-55
2024/03/25 08:22:43;;;;;;;;;;;;;;;16.42;49.55;99450.31;5078170;28;1893;-54
2024/03/25 08:25:09;;;;;;;;;;;;;;;15.96;50.71;99453.09;5056995;28;2410;-55
2024/03/25 08:27:34;;;;;;;;;;;;;;;15.74;51.20;99452.59;5067427;28;1063;-55
2024/03/25 08:30:00;;;;;;;;;;;;;;;15.49;51.89;99453.03;5063139;28;1005;-56
2024/03/25 08:32:26;;;;;;;;;;;;;;;15.32;52.18;99448.91;5068381;28;1103;-55
2024/03/25 08:34:51;;;;;;;;;;;;;;;15.21;52.42;99447.44;5071255;28;999;-55
2024/03/25 08:37:17;;;;;;;;;;;;;;;16.17;50.69;99451.63;5054166;28;1372;-57
2024/03/25 08:39:42;;;;;;;;;;;;;;;17.36;47.48;99447.22;5071434;28;1199;-56
2024/03/25 08:42:08;;;;;;;;;;;;;;;16.95;48.38;99452.84;5049593;28;1938;-55
2024/03/25 08:44:33;;;;;;;;;;;;;;;16.19;50.44;99454.84;5046243;28;1216;-55
2024/03/25 08:46:59;;;;;;;;;;;;;;;15.92;50.75;99452.88;5044963;28;1093;-55
2024/03/25 08:49:25;;;;;;;;;;;;;;;15.74;51.49;99460.03;5060657;28;1120;-55
2024/03/25 08:51:50;;;;;;;;;;;;;;;15.50;52.15;99454.66;5045648;28;1394;-55
2024/03/25 08:54:16;;;;;;;;;;;;;;;15.42;52.16;99464.38;5048276;28;2540;-61
2024/03/25 08:56:42;;;;;;;;;;;;;;;16.13;50.98;99458.81;5050090;28;1228;-56
2024/03/25 08:59:09;;;;;;;;;;;;;;;17.40;47.42;99450.97;5077005;28;1023;-57
2024/03/25 09:01:35;;;;;;;;;;;;;;;17.72;46.42;99457.31;5077004;28;1138;-56
2024/03/25 09:04:00;;;;;;;;;;;;;;;16.64;49.09;99445.22;5051508;28;1067;-57
2024/03/25 09:06:27;;;;;;;;;;;;;;;16.27;50.25;99458.00;5052969;28;1059;-54
2024/03/25 09:11:37;;;;;;;;;;;;;;;15.71;51.74;99460.59;5046468;28;1052;-54
2024/03/25 09:14:04;;;;;;;;;;;;;;;15.59;51.71;99458.34;5038796;28;1526;-54
2024/03/25 09:16:30;;;;;;;;;;;;;;;15.54;51.97;99466.63;5050761;28;1083;-54
2024/03/25 09:18:55;;;;;;;;;;;;;;;16.83;49.02;99467.03;5052288;28;1077;-54
2024/03/25 09:21:24;;;;;;;;;;;;;;;17.78;46.71;99458.84;5047625;28;1091;-53
2024/03/25 09:23:50;;;;;;;;;;;;;;;17.10;48.19;99456.03;5060265;28;2640;-58
2024/03/25 09:26:15;;;;;;;;;;;;;;;16.36;50.10;99464.44;5044627;28;1099;-56
2024/03/25 09:28:41;;;;;;;;;;;;;;;16.06;51.05;99461.97;5058339;28;1087;-56
2024/03/25 09:31:06;;;;;;;;;;;;;;;15.83;51.54;99463.72;5056474;28;1238;-54
2024/03/25 09:33:32;;;;;;;;;;;;;;;15.70;51.74;99470.75;5060691;28;1306;-56
2024/03/25 09:35:59;;;;;;;;;;;;;;;15.54;51.96;99483.06;5052595;28;1268;-57
2024/03/25 09:38:25;;;;;;;;;;;;;;;15.38;52.49;99491.53;5048091;28;863;-58
2024/03/25 09:40:51;;;;;;;;;;;;;;;15.26;52.57;99491.16;5052377;28;1103;-57
2024/03/25 09:43:19;;;;;;;;;;;;;;;16.40;50.31;99498.38;5046020;28;2028;-57
2024/03/25 09:45:45;;;;;;;;;;;;;;;17.50;47.30;99490.31;5053686;28;1035;-58
2024/03/25 09:48:11;;;;;;;;;;;;;;;16.74;48.95;99495.22;5033887;28;982;-57
2024/03/25 09:50:36;;;;;;;;;;;;;;;16.14;50.72;99495.28;5045221;28;1167;-58
2024/03/25 09:53:02;;;;;;;;;;;;;;;15.84;51.29;99494.72;5063023;28;1071;-56
2024/03/25 09:55:28;;;;;;;;;;;;;;;15.62;51.94;99490.63;5046505;28;1986;-56
2024/03/25 09:57:53;;;;;;;;;;;;;;;15.53;51.93;99479.53;5060534;28;1083;-56
2024/03/25 10:00:19;;;;;;;;;;;;;;;15.36;52.20;99477.34;5046599;28;1357;-58
2024/03/25 10:02:45;;;;;;;;;;;;;;;15.28;52.66;99478.00;5055109;28;1975;-56
2024/03/25 10:05:10;;;;;;;;;;;;;;;16.72;49.48;99472.75;5051035;28;1192;-56
2024/03/25 10:07:36;;;;;;;;;;;;;;;17.67;46.89;99482.22;5061581;28;1087;-56
2024/03/25 10:10:05;;;;;;;;;;;;;;;16.74;48.85;99476.00;5049293;28;1067;-57
2024/03/25 10:12:31;;;;;;;;;;;;;;;16.13;50.83;99485.41;5055441;28;1001;-56
2024/03/25 10:14:57;;;;;;;;;;;;;;;15.83;51.31;99490.31;5050022;28;1502;-58
2024/03/25 10:17:23;;;;;;;;;;;;;;;15.65;51.57;99492.75;5035226;28;1208;-56
2024/03/25 10:19:49;;;;;;;;;;;;;;;15.54;51.80;99494.03;5044331;28;992;-56
2024/03/25 10:22:14;;;;;;;;;;;;;;;15.34;52.32;99490.50;5039644;28;1901;-56
2024/03/25 10:24:41;;;;;;;;;;;;;;;15.26;52.65;99488.41;5055055;28;2568;-57
2024/03/25 10:27:09;;;;;;;;;;;;;;;16.90;48.83;99503.16;5067520;28;1194;-58
2024/03/25 10:29:35;;;;;;;;;;;;;;;17.78;46.37;99486.34;5051230;28;1279;-60
2024/03/25 10:32:01;;;;;;;;;;;;;;;16.75;49.06;99488.59;5054352;28;1111;-56
2024/03/25 10:34:26;;;;;;;;;;;;;;;16.17;50.35;99478.22;5072650;28;1528;-56
2024/03/25 10:36:52;;;;;;;;;;;;;;;15.93;51.12;99478.38;5040297;28;962;-57
2024/03/25 10:39:18;;;;;;;;;;;;;;;15.71;51.69;99498.97;5035272;28;1392;-57
2024/03/25 10:41:43;;;;;;;;;;;;;;;15.48;52.21;99508.94;5031779;28;1889;-56
2024/03/25 10:44:09;;;;;;;;;;;;;;;15.33;52.74;99508.06;5025409;28;1145;-56
2024/03/25 10:46:35;;;;;;;;;;;;;;;15.87;51.59;99507.81;5018177;28;1350;-56
2024/03/25 10:49:02;;;;;;;;;;;;;;;17.26;48.01;99510.63;5053240;28;1007;-57
2024/03/25 10:51:28;;;;;;;;;;;;;;;17.06;48.20;99512.69;5026411;28;1203;-57
2024/03/25 10:53:53;;;;;;;;;;;;;;;16.19;50.27;99514.41;5048629;28;1966;-60
2024/03/25 10:56:22;;;;;;;;;;;;;;;15.84;51.30;99522.91;5044158;28;1011;-59
2024/03/25 10:58:50;;;;;;;;;;;;;;;15.63;51.80;99532.56;5046411;28;1323;-58
2024/03/25 11:01:19;;;;;;;;;;;;;;;15.48;52.38;99539.06;5039516;28;1044;-57
2024/03/25 11:03:48;;;;;;;;;;;;;;;15.39;52.49;99547.16;5043017;28;1913;-58
2024/03/25 11:06:14;;;;;;;;;;;;;;;15.26;52.88;99548.66;5061792;28;1526;-57
2024/03/25 11:08:41;;;;;;;;;;;;;;;16.45;50.25;99552.31;5055600;28;1186;-58
2024/03/25 11:11:07;;;;;;;;;;;;;;;17.52;47.21;99556.78;5041834;28;1015;-58
2024/03/25 11:13:32;;;;;;;;;;;;;;;16.72;49.14;99559.78;5067099;28;1094;-57
2024/03/25 11:15:59;;;;;;;;;;;;;;;16.10;50.95;99565.56;5049282;28;1111;-56
2024/03/25 11:18:25;;;;;;;;;;;;;;;15.82;51.41;99554.47;5077893;28;1120;-57
2024/03/25 11:21:12;;;;;;;;;;;;;;;15.59;51.97;99546.03;5060530;28;1104;-59
2024/03/25 11:23:44;;;;;;;;;;;;;;;15.36;52.72;99548.53;5039743;28;2482;-57
2024/03/25 11:26:16;;;;;;;;;;;;;;;15.23;52.81;99554.75;5066438;28;983;-60
2024/03/25 11:28:45;;;;;;;;;;;;;;;16.51;49.98;99540.97;5059646;28;1212;-58
2024/03/25 11:31:10;;;;;;;;;;;;;;;17.54;47.12;99546.28;5055443;28;1065;-61
2024/03/25 11:33:39;;;;;;;;;;;;;;;17.06;48.22;99539.38;5034303;28;1021;-64
2024/03/25 11:36:05;;;;;;;;;;;;;;;16.29;50.16;99546.31;5050381;28;1063;-58
2024/03/25 11:38:30;;;;;;;;;;;;;;;15.96;51.00;99544.38;5045824;28;1356;-58
2024/03/25 11:40:56;;;;;;;;;;;;;;;15.72;51.54;99552.69;5063943;28;1044;-59
2024/03/25 11:43:22;;;;;;;;;;;;;;;15.59;51.89;99557.00;5064704;28;1996;-58
2024/03/25 11:45:47;;;;;;;;;;;;;;;15.40;52.31;99549.59;5069377;28;1346;-59
2024/03/25 11:48:16;;;;;;;;;;;;;;;15.24;52.62;99548.16;5057863;28;1132;-60
2024/03/25 11:50:44;;;;;;;;;;;;;;;16.23;50.71;99548.34;5040127;28;1551;-62
2024/03/25 11:53:10;;;;;;;;;;;;;;;17.41;47.61;99557.00;5041364;28;1351;-60
2024/03/25 11:55:35;;;;;;;;;;;;;;;16.85;48.44;99550.72;5043926;28;1749;-61
2024/03/25 11:58:01;;;;;;;;;;;;;;;16.13;50.37;99556.72;5050596;28;917;-60
2024/03/25 12:00:27;;;;;;;;;;;;;;;15.86;51.12;99542.59;5042529;28;1485;-61
2024/03/25 12:02:52;;;;;;;;;;;;;;;15.64;51.74;99559.66;5065138;28;1975;-59
2024/03/25 12:05:18;;;;;;;;;;;;;;;15.49;51.79;99562.63;5052011;28;1177;-58
2024/03/25 12:07:44;;;;;;;;;;;;;;;15.34;52.19;99560.91;5065849;28;841;-60
2024/03/25 12:12:53;;;;;;;;;;;;;;;17.30;47.40;99591.31;5046054;28;1413;-59
2024/03/25 12:15:22;;;;;;;;;;;;;;;17.57;46.58;99593.22;5047719;28;1193;-59
2024/03/25 12:17:47;;;;;;;;;;;;;;;16.51;49.26;99604.06;5036516;28;1175;-59
2024/03/25 12:20:13;;;;;;;;;;;;;;;16.13;50.05;99611.56;5027273;28;1132;-57
2024/03/25 12:22:41;;;;;;;;;;;;;;;15.84;50.82;99613.38;5043714;28;1901;-59
2024/03/25 12:25:07;;;;;;;;;;;;;;;15.71;51.30;99614.91;5047046;28;2395;-59
2024/03/25 12:27:33;;;;;;;;;;;;;;;15.52;51.63;99623.09;5049380;28;1303;-58
2024/03/25 12:30:08;;;;;;;;;;;;;;;15.34;51.92;99632.91;5066137;28;1060;-59
2024/03/25 12:32:41;;;;;;;;;;;;;;;15.84;50.66;99601.59;5062088;28;1119;-61
2024/03/25 12:35:24;;;;;;;;;;;;;;;17.29;47.00;99606.16;5069626;28;1047;-58
2024/03/25 12:37:51;;;;;;;;;;;;;;;16.75;47.92;99612.13;5065701;28;921;-59
2024/03/25 12:40:26;;;;;;;;;;;;;;;16.04;49.88;99612.25;5070960;28;1084;-57
2024/03/25 12:42:52;;;;;;;;;;;;;;;15.73;50.65;99623.63;5056821;28;1972;-58
2024/03/25 12:45:18;;;;;;;;;;;;;;;15.67;50.86;99632.22;5078087;28;1012;-57
2024/03/25 12:47:43;;;;;;;;;;;;;;;15.46;51.62;99626.19;5046323;28;1145;-57
2024/03/25 12:50:09;;;;;;;;;;;;;;;15.32;51.94;99620.63;5059468;28;1193;-57
2024/03/25 12:52:36;;;;;;;;;;;;;;;15.81;50.83;99613.16;5055321;28;1374;-59
2024/03/25 12:55:03;;;;;;;;;;;;;;;17.19;47.28;99622.88;5063435;28;2523;-57
2024/03/25 12:57:29;;;;;;;;;;;;;;;17.41;46.66;99620.19;5040523;28;1345;-60
2024/03/25 12:59:54;;;;;;;;;;;;;;;16.42;49.18;99622.34;5048855;28;1318;-58
2024/03/25 13:02:20;;;;;;;;;;;;;;;16.01;50.34;99629.28;5052436;28;1913;-55